Timeline UpdatesTrip UpdatesNews PostsPvt PostsTravel TipsAdmin PostsConv PostsFollowed PostsChat RequestsBlog PostsPNR Posts

Disclaimer
Search
 
 
Tue Sep 23, 2014 09:48:49 ISTHomeTrainsΣChainsAtlasPNRForumGalleryNewsFAQTripsMembersLoginFeedback
No Recent News for this Train
Other Trains in the News **new
Latest...
.
Fri Nov 22, 2013 (09:02AM)
⇐ Return Journey: Train# 17482

17481/Bilaspur-Tirupati Express

Time-Table HAS CHANGED.
Sep 03 (5:30PM)
Change Departure Station:
Change Arrival Station:
Post a Train Travel TipPost a Train Travel Tip **new
Post a Comment/Question/Picture/VideoPost a Comment/Question/Picture/Video
Pantry/Catering
✕ NO Pantry Car
✓ Catering Avbl
Loco/Rake Reversals
R/Raipur Junction (6); VSKP/Visakhapatnam Junction (8);
RSA - Rake Sharing
Rake/Coach Composition
ENG-SLR-GS-GS-GS-S1-S2-S3-S4-S5-B1-GS-GS-GS-SLR (BSP-R & VSKP-TPTY); ENG-SLR-GS-GS-GS-B1-S5-S4-S3-S2-S1-GS-GS-GS-SLR (R-VSKP)
Loco
Loco Change at BZA frm Electric (WAM 4) to Diesel...
Read more...
(Dual WDP 1 frm BZA shed) and again frm Diesel (dual WDP 1 frm BZA shed) to Electric(WAM4 usually) at RJY and again from Electric(WAM4) to Diesel at VSKP.
News    PNR    Forum    Time-Table    Availability    Fare Chart    Map    Arr/Dep History    Trips    Gallery    ΣChains    X/O    Timeline    
Travel Time: 30h 30m    63 halts    Distance: 1403 km    Avg Speed: 46 km/hr
Type: Mail/Express
Zone: SCR/South Central
Departs @ 10:05 (Avg 3m late)
Platform# 6
  T   S
Bilaspur Junction/BSP 
Arrives @ 16:35 +1 night (Avg 12m late)
Platform# 4
S  W   
Tirupati Main/TPTY 

63 halts. 202 intermediate Stations between Bilaspur Junction and Tirupati Main

Show ALL intermediate Stations  Show Old Time-Table

#CodeStation NameX/OArrivesAvgDepartsAvgHaltPFDay#KmSpeedElevZoneAddress
1BSPBilaspur Junction (8)»  -10:05+3610.077271mSECRBilaspur, Chhattisgarh
2BYTBhatapara (4)X  10:42 10:41+1110:43+121 2m--146.287270mSECRBanjari Road, Chhattisgarh
3TLDTilda (3)  11:02 11:01+1111:03+111 2m--172.244 SECRBanjari Rd, Chhattisgarh
4RRaipur Junction (6)11:55+312:15+820m--1110.451297mSECRRaipur, Chhattisgarh
5MSMDMahasamund  13:31 13:18+613:32 13:20+71 2m--1164.056301mECoRMahasamund, Chhattisgarh
6BGBRBagbahra  13:59 13:53+814:00 13:55+101 2m--1194.642358mECoRBagbahra, Chhattisgarh
7KRARKhariar Road  14:26 14:25+514:27+151 2m--1215.663317mECoRJonk, Odisha
8NPDNawapara Road  14:39 14:38+1414:40+151 2m--1227.288344mECoRNuapada District, Odisha
9HSKHarishanker Road (2)  15:02 15:00+1615:03 15:02+191 2m--1256.777335mECoRPin Code:767038, Odisha
10KBJKantabanji  15:25 15:20+1715:35 15:30+1810m--1279.943283mECoRBolangir, Odisha
11TIGTitlagarh Junction (3)X  16:15+1316:25+1610m--1312.464212mECoRTitlagarh, Odisha
12KSNGKesinga (1)X  16:41 16:38+1516:42 16:40+161 2m11326.365183mECoRKesinga, Odisha
13RPRDRupra Road  16:57 16:55+2116:58 16:57+221 2m--1342.550233mECoRKalahandi, Odisha
14NRLRNorla Road  17:07 17:05+2017:08 17:07+231 2m--1349.265247mECoRKalahandi, Odisha
15AMBAmbodala  17:34 17:30+1417:35 17:32+171 2m--1374.275374mECoRState Highway 6, Odisha
16MNGDMuniguda  17:56 17:52+2017:57 17:54+211 2m--1399.147335mECoRMuniguda, Odisha
17THVTherubali  18:34 18:40+1818:35 18:50+221 10m--1435.156270mECoRRayagada, Odisha
18SPRDSingapuram Road (2)X  19:01 19:00+1419:02+151 2m--1444.543248mECoRJaykaypur, Odisha
19RGDARayagada (3)  19:15+1319:25+1510m--1453.778229mECoRRayagada ph.no 06856-222407, Odisha
20PVPTParvatipuram Town  20:01 20:00+020:02+01 2m--1499.033121mECoRParvatipuram, Andhra Pradesh
21PVPParvatipuram (3)  20:06 20:05+2420:07+251 2m--1500.780122mECoRParvatipuram, Andhra Pradesh
22VBLBobbili Junction (2)  20:25+2720:27+272m21524.652137mECoRBobbili, Andhra Pradesh
23VZMVizianagaram Junction (5)  21:30+1321:35+175m--1578.87063mECoRVizianagaram, Andhra Pradesh
24KTVKottavalasa Junction (5)  22:06 22:05+2322:07+231 2m--1613.86858mECoRVizianagaram District, Andhra Pradesh
25SCMSimhachalam (2)  22:24 22:23+022:25+01 2m--1631.9927mECoRVisakhapatnam, Andhra Pradesh
26VSKPVisakhapatnam Junction (8)X23:20+323:40+520m41640.03511mECoRVishakhapatnam 530001, Andhra Pradesh
27DVDDuvvada (4)  00:09 00:08+1000:10+111 2m12656.35346mECoRVishakhapatnam District, Andhra Pradesh
28AKPAnakapalle (3)  00:28+1500:29+161m22672.35930mSCRAnakapalle ph.no . 08924-221698, Andhra Pradesh
29YLMElamanchili (2)  00:53+1300:54+141m--2696.010423mSCRVisakhapatnam District, Andhra Pradesh
30TUNITuni (2)  01:17+2401:18+251m12736.17124mSCRTuni ph.no. 08854-252172, Andhra Pradesh
31ANVAnnavaram (3)X  01:32+2401:33+251m12752.88327mSCREast Godavari District, Andhra Pradesh
32PAPPithapuram (2)X  01:51+3101:52+311m--2777.55622mSCREast Godavari District, Andhra Pradesh
33SLOSamalkot Junction (3)X  02:05+2602:06+271m32789.68418mSCRSamalkot, Andhra Pradesh
34APTAnaparti (3)X  02:25+3602:26+361m--2816.14521mSCREast Godavari District, Andhra Pradesh
35DWPDwarapudi (3)  02:31+3602:32+361m--2819.93120mSCREast Godavari District, Andhra Pradesh
36RJYRajahmundry (3)X  03:10+2803:25+3115m12839.83623mSCRRajahmundry ph.no. 0883-2420541, Andhra Pradesh
37KVRKovvur (3)  03:38+3503:39+361m32847.64325mSCRWest Godavari, Andhra Pradesh
38NDDNidadavolu Junction (3)  03:59+3004:00+311m22862.05420mSCRNidadavolu jtn ph.no. 08813-210325, Andhra Pradesh
39TNKUTanuku (2)  04:19+3404:20+351m--2879.15312mSCR131, Andhra Pradesh
40ALAttili (1)  04:32+3904:33+411m12889.74214mSCRWest Godavari, Andhra Pradesh
41BVRTBhimavaram Town (2)X  05:01+3405:02+351m12909.5488mSCRBhimavaram, Andhra Pradesh
42AKVDAkividu (3)X  05:24+4205:25+471m--2927.2485mSCRCoast Andhra, Andhra Pradesh
43KKLRKaikaluru (2)X  05:46+5705:47+591m--2943.8348mSCRKaikalur, Andhra Pradesh
44GDVGudivada Junction (3)X  06:39+5006:40+511m--2973.13211mSCRKrishna District, Andhra Pradesh
45BZAVijayawada Junction (10)  08:00+3708:20+3820m--21016.35624mSCRVijayawada 520001, Andhra Pradesh
46DIGDuggirala (3)  08:43+5008:44+571m--21037.86516mSCRDuggirala, Andhra Pradesh
47TELTenali Junction (5)  08:53+5708:54+591m321047.56616mSCRTel: 08644-227834, Andhra Pradesh
48NDONidubrolu (3)X  09:14+1:0409:15+1:061m--21069.6659mSCRNidubrolu, Andhra Pradesh
49BPPBapatla (3)  09:34+1:0609:35+1:071m--21090.17510mSCRBapatla, Andhra Pradesh
50CLXChirala (4)  09:47+1:0409:48+1:071m--21105.2528mSCRChirala, Andhra Pradesh
51VTMVetapalem (3)  09:57+1:1209:58+1:151m--21113.1688mSCRVetapalem, Andhra Pradesh
52CJMChinnaganjam (3)  10:09+1:1310:10+1:141m--21125.5659mSCRChinna Ganjam, Andhra Pradesh
53ANBAmmanabrolu (3)  10:23+1:1710:24+1:171m--21139.64516mSCRAmmanabrolu, Andhra Pradesh
54OGLOngole (3)X  10:44+1:1210:45+1:151m321154.56212mSCROngole, Andhra Pradesh
55TNRTanguturu (3)X  11:03+1:1511:04+1:151m--21173.27210mSCRTanguturu, Andhra Pradesh
56SKMSingarayakonda (2)X  11:12+1:1411:13+1:161m221182.86326mSCRSingarayakonda, Andhra Pradesh
57KVZKavali (4)XO  11:49+2:4011:50+2:511m221220.57021mSCRKavali, Andhra Pradesh
58BTTRBitragunta (2)  12:04-12:05-1m221237.07615mSCRBitragunta, Andhra Pradesh
59NLRNellore (4)X  12:32+5712:33+571m321271.32721mSCRNellore, Andhra Pradesh
60GDRGudur Junction (3)X  14:00+2714:05+245m121309.86819mSCRGudur, Andhra Pradesh
61VDDVendodu (2)X  14:22+4814:23+481m--21329.07655mSCRNellore, Andhra Pradesh
62VKIVenkatagiri (3)X  14:36+5014:37+521m221345.56177mSCRNellore District, Andhra Pradesh
63KHTSri Kalahasti (2)  15:01+5715:02+1:021m121370.03068mSCRChittoor District, Andhra Pradesh
64RURenigunta Junction (5)  15:48+1:1215:50+1:202m--21393.213113mSCRChittoor District, Andhra Pradesh
65TPTYTirupati Main (5)•  16:35+12-421403.1-150mSCRChittoor Distt, Andhra Pradesh
Scroll to Top
Scroll to Bottom